createdAt,value
2023-02-06T00:02:12.148Z,103807.75
2023-02-06T00:04:41.099Z,103810.66
2023-02-06T00:07:09.493Z,103813.88
2023-02-06T00:09:37.410Z,103820.00
2023-02-06T00:12:05.479Z,103820.81
2023-02-06T00:14:33.705Z,103830.88
2023-02-06T00:17:02.120Z,103842.59
2023-02-06T00:19:31.524Z,103834.22
2023-02-06T00:22:02.183Z,103848.41
2023-02-06T00:24:30.894Z,103841.41
2023-02-06T00:26:59.195Z,103844.63
2023-02-06T00:29:28.813Z,103841.19
2023-02-06T00:31:59.016Z,103847.41
2023-02-06T00:34:27.626Z,103812.09
2023-02-06T00:36:57.015Z,103836.41
2023-02-06T00:39:27.608Z,103815.75
2023-02-06T00:41:56.260Z,103825.97
2023-02-06T00:44:24.173Z,103832.66
2023-02-06T00:46:52.193Z,103835.44
2023-02-06T00:49:21.156Z,103835.13
2023-02-06T00:51:49.167Z,103855.03
2023-02-06T00:54:20.870Z,103894.16
2023-02-06T00:56:49.375Z,103894.16
2023-02-06T00:59:17.454Z,103972.97
2023-02-06T01:01:48.608Z,103968.31
2023-02-06T01:04:16.873Z,103976.78
2023-02-06T01:06:44.827Z,103980.50
2023-02-06T01:09:12.790Z,103988.59
2023-02-06T01:11:42.172Z,103988.41
2023-02-06T01:14:10.177Z,103989.84
2023-02-06T01:16:38.031Z,103990.16
2023-02-06T01:19:05.896Z,103973.56
2023-02-06T01:21:33.914Z,103986.91
2023-02-06T01:24:16.407Z,103995.88
2023-02-06T01:26:45.722Z,103984.53
2023-02-06T01:29:13.761Z,103991.47
2023-02-06T01:31:50.961Z,104035.78
2023-02-06T01:34:18.825Z,104030.59
2023-02-06T01:36:46.805Z,104044.81
2023-02-06T01:39:16.170Z,104019.66
2023-02-06T01:41:47.583Z,104029.59
2023-02-06T01:44:17.932Z,104018.63
2023-02-06T01:46:49.642Z,104027.22
2023-02-06T01:49:22.072Z,104012.63
2023-02-06T01:51:52.116Z,104043.56
2023-02-06T01:54:24.734Z,104034.06
2023-02-06T01:56:57.870Z,104043.47
2023-02-06T01:59:28.076Z,104051.50
2023-02-06T02:01:58.332Z,104045.53
2023-02-06T02:04:29.396Z,104049.59
2023-02-06T02:07:07.572Z,104046.81
2023-02-06T02:09:35.574Z,104048.94
2023-02-06T02:12:05.352Z,104054.66
2023-02-06T02:14:34.669Z,104049.25
2023-02-06T02:17:27.306Z,104044.59
2023-02-06T02:20:39.037Z,104031.06
2023-02-06T02:23:21.667Z,104032.34
2023-02-06T02:26:16.306Z,104024.22
2023-02-06T02:29:15.418Z,104024.97
2023-02-06T02:32:23.601Z,104025.19
2023-02-06T02:35:22.978Z,104018.16
2023-02-06T02:38:02.909Z,104033.63
2023-02-06T02:40:41.105Z,104028.47
2023-02-06T02:43:18.913Z,104044.59
2023-02-06T02:45:52.877Z,104027.94
2023-02-06T02:48:26.319Z,104023.22
2023-02-06T02:50:58.127Z,104017.31
2023-02-06T02:53:26.934Z,104017.41
2023-02-06T02:55:55.492Z,104010.97
2023-02-06T02:58:27.731Z,104020.25
2023-02-06T03:01:00.561Z,103999.13
2023-02-06T03:03:31.246Z,104004.88
2023-02-06T03:06:16.700Z,104014.66
2023-02-06T03:08:53.058Z,104001.28
2023-02-06T03:11:22.824Z,104008.69
2023-02-06T03:13:55.002Z,104009.09
2023-02-06T03:16:27.143Z,104006.91
2023-02-06T03:19:05.706Z,104004.31
2023-02-06T03:21:36.677Z,103996.72
2023-02-06T03:24:09.219Z,103995.59
2023-02-06T03:26:38.252Z,103993.94
2023-02-06T03:29:10.121Z,104014.53
2023-02-06T03:31:43.308Z,104006.63
2023-02-06T03:34:15.290Z,104005.63
2023-02-06T03:36:45.126Z,104004.41
2023-02-06T03:39:13.833Z,103983.22
2023-02-06T03:41:43.060Z,103981.72
2023-02-06T03:44:16.454Z,103981.91
2023-02-06T03:46:46.108Z,103992.81
2023-02-06T03:49:17.429Z,104003.72
2023-02-06T03:51:51.863Z,104035.44
2023-02-06T03:54:23.749Z,104044.44
2023-02-06T03:56:55.277Z,104050.28
2023-02-06T03:59:26.906Z,104047.34
2023-02-06T04:01:58.374Z,104050.59
2023-02-06T04:04:30.497Z,104046.19
2023-02-06T04:07:07.297Z,104045.13
2023-02-06T04:09:35.370Z,104050.13
2023-02-06T04:12:03.388Z,104062.28
2023-02-06T04:14:38.491Z,104063.25
2023-02-06T04:17:07.213Z,104054.69
2023-02-06T04:19:35.794Z,104062.75
2023-02-06T04:22:07.123Z,104064.13
2023-02-06T04:24:36.901Z,104056.91
2023-02-06T04:27:04.941Z,104055.03
2023-02-06T04:29:34.005Z,104056.66
2023-02-06T04:32:02.315Z,104053.22
2023-02-06T04:34:30.351Z,104056.91
2023-02-06T04:36:58.437Z,104067.72
2023-02-06T04:39:29.770Z,104080.69
2023-02-06T04:41:57.969Z,104096.78
2023-02-06T04:44:26.030Z,104092.84
2023-02-06T04:46:53.914Z,104110.31
2023-02-06T04:49:22.070Z,104129.44
2023-02-06T04:51:49.881Z,104132.41
2023-02-06T04:54:18.866Z,104130.88
2023-02-06T04:56:48.277Z,104137.03
2023-02-06T04:59:16.261Z,104149.97
2023-02-06T05:01:44.247Z,104162.22
2023-02-06T05:04:12.172Z,104155.88
2023-02-06T05:06:40.161Z,104174.16
2023-02-06T05:09:08.206Z,104153.06
2023-02-06T05:11:38.521Z,104172.34
2023-02-06T05:14:08.082Z,104180.13
2023-02-06T05:16:36.166Z,104182.97
2023-02-06T05:19:04.271Z,104194.03
2023-02-06T05:21:32.259Z,104216.94
2023-02-06T05:24:01.416Z,104213.00
2023-02-06T05:26:29.444Z,104220.13
2023-02-06T05:28:58.268Z,104216.09
2023-02-06T05:31:27.628Z,104212.75
2023-02-06T05:33:57.580Z,104200.00
2023-02-06T05:36:26.431Z,104198.06
2023-02-06T05:38:54.253Z,104201.72
2023-02-06T05:41:22.204Z,104204.50
2023-02-06T05:43:50.296Z,104204.88
2023-02-06T05:46:19.455Z,104217.44
2023-02-06T05:48:48.730Z,104223.19
2023-02-06T05:51:16.990Z,104214.81
2023-02-06T05:53:45.064Z,104195.31
2023-02-06T05:56:13.309Z,104183.78
2023-02-06T05:58:41.280Z,104179.22
2023-02-06T06:01:09.114Z,104149.78
2023-02-06T06:03:38.536Z,104154.16
2023-02-06T06:06:08.901Z,104151.41
2023-02-06T06:08:40.047Z,104136.47
2023-02-06T06:11:14.435Z,104122.09
2023-02-06T06:13:42.447Z,104124.88
2023-02-06T06:16:10.281Z,104115.69
2023-02-06T06:18:38.209Z,104100.50
2023-02-06T06:21:08.280Z,104096.25
2023-02-06T06:23:36.175Z,104090.84
2023-02-06T06:26:04.811Z,104074.91
2023-02-06T06:28:35.080Z,104085.22
2023-02-06T06:31:07.447Z,104093.88
2023-02-06T06:33:36.035Z,104081.16
2023-02-06T06:36:04.153Z,104100.81
2023-02-06T06:38:33.517Z,104097.38
2023-02-06T06:41:02.581Z,104089.06
2023-02-06T06:43:30.619Z,104093.41
2023-02-06T06:46:00.472Z,104082.81
2023-02-06T06:48:36.221Z,104075.72
2023-02-06T06:51:06.126Z,104074.00
2023-02-06T06:54:00.902Z,104072.94
2023-02-06T06:56:28.896Z,104065.28
2023-02-06T06:59:05.101Z,104062.94
2023-02-06T07:01:36.056Z,104070.03
2023-02-06T07:04:04.172Z,104067.00
2023-02-06T07:06:32.189Z,104054.53
2023-02-06T07:09:01.574Z,104036.81
2023-02-06T07:11:31.834Z,104029.59
2023-02-06T07:13:59.988Z,104032.81
2023-02-06T07:16:28.046Z,104005.59
2023-02-06T07:18:55.979Z,103996.84
2023-02-06T07:21:23.918Z,104008.66
2023-02-06T07:23:51.946Z,103996.94
2023-02-06T07:26:21.427Z,103980.47
2023-02-06T07:28:49.895Z,103998.59
2023-02-06T07:31:18.158Z,103991.91
2023-02-06T07:33:46.516Z,103978.63
2023-02-06T07:36:18.492Z,103962.34
2023-02-06T07:38:46.463Z,103972.19
2023-02-06T07:41:14.375Z,103962.91
2023-02-06T07:43:44.240Z,103981.78
2023-02-06T07:46:12.243Z,103992.53
2023-02-06T07:48:40.270Z,103991.72
2023-02-06T07:51:10.078Z,103985.53
2023-02-06T07:53:44.687Z,103992.16
2023-02-06T07:56:16.642Z,103993.59
2023-02-06T07:58:52.203Z,103056.28
2023-02-06T08:01:22.375Z,103179.84
2023-02-06T08:03:51.426Z,103262.91
2023-02-06T08:06:24.813Z,103270.28
2023-02-06T08:09:09.262Z,103345.63
2023-02-06T08:11:46.472Z,103327.75
2023-02-06T08:14:16.447Z,103352.47
2023-02-06T08:16:51.165Z,103376.28
2023-02-06T08:19:21.477Z,103377.06
2023-02-06T08:21:51.741Z,103375.63
2023-02-06T08:24:21.066Z,103371.69
2023-02-06T08:26:49.125Z,103368.78
2023-02-06T08:29:18.774Z,103374.56
2023-02-06T08:31:46.658Z,103366.19
2023-02-06T08:34:16.026Z,103368.78
2023-02-06T08:36:44.919Z,103372.88
2023-02-06T08:39:14.209Z,103364.66
2023-02-06T08:41:53.815Z,103358.28
2023-02-06T08:44:24.306Z,103370.00
2023-02-06T08:47:09.207Z,103364.38
2023-02-06T08:49:39.802Z,103359.50
2023-02-06T08:52:08.715Z,103340.63
2023-02-06T08:54:38.674Z,103334.66
2023-02-06T08:57:07.216Z,103344.78
2023-02-06T08:59:36.566Z,103352.63
2023-02-06T09:02:06.549Z,103351.00
2023-02-06T09:04:37.976Z,103332.91
2023-02-06T09:07:06.142Z,103347.28
2023-02-06T09:09:34.108Z,103350.53
2023-02-06T09:12:04.025Z,103328.19
2023-02-06T09:14:32.736Z,103312.50
2023-02-06T09:17:09.645Z,103314.09
2023-02-06T09:19:37.553Z,103309.34
2023-02-06T09:22:07.302Z,103310.72
2023-02-06T09:24:35.378Z,103312.91
2023-02-06T09:27:04.421Z,103309.69
2023-02-06T09:29:38.264Z,103300.97
2023-02-06T09:32:08.069Z,103289.81
2023-02-06T09:34:36.047Z,103254.75
2023-02-06T09:37:04.884Z,103266.88
2023-02-06T09:39:34.873Z,103278.66
2023-02-06T09:42:43.417Z,103243.34
2023-02-06T09:45:16.290Z,103247.72
2023-02-06T09:47:49.343Z,103237.38
2023-02-06T09:50:28.735Z,103264.03
2023-02-06T09:53:09.553Z,103270.28
2023-02-06T09:55:46.247Z,103247.69
2023-02-06T09:58:23.804Z,103268.53
2023-02-06T10:01:01.037Z,103250.28
2023-02-06T10:06:37.419Z,103170.97
2023-02-06T10:09:22.384Z,103197.38
2023-02-06T10:12:06.685Z,103212.78
2023-02-06T10:15:03.657Z,103213.25
2023-02-06T10:17:35.395Z,103229.47
2023-02-06T10:20:06.991Z,103245.53
2023-02-06T10:22:41.825Z,103224.66
2023-02-06T10:25:23.935Z,103240.56
2023-02-06T10:27:56.037Z,103208.75
2023-02-06T10:30:34.418Z,103163.72
2023-02-06T10:33:25.278Z,103183.97
2023-02-06T10:36:04.462Z,103199.34
2023-02-06T10:38:52.210Z,103217.94
2023-02-06T10:41:31.752Z,103245.72
2023-02-06T10:44:12.111Z,103266.59
2023-02-06T10:46:44.975Z,103286.78
2023-02-06T10:49:22.541Z,103315.59
2023-02-06T10:51:54.196Z,103320.28
2023-02-06T10:54:27.348Z,103343.47
2023-02-06T10:57:00.962Z,103343.78
2023-02-06T10:59:32.650Z,103359.69
2023-02-06T11:02:15.930Z,103399.44
2023-02-06T11:04:48.769Z,103404.16
2023-02-06T11:07:23.306Z,103411.13
2023-02-06T11:10:07.043Z,103379.97
2023-02-06T11:12:37.669Z,103417.16
2023-02-06T11:15:16.008Z,103491.72
2023-02-06T11:17:46.629Z,103485.38
2023-02-06T11:20:35.080Z,103520.50
2023-02-06T11:23:24.079Z,103531.88
2023-02-06T11:26:06.770Z,103560.50
2023-02-06T11:28:37.357Z,103558.81
2023-02-06T11:31:07.909Z,103602.84
2023-02-06T11:33:47.409Z,103620.47
2023-02-06T11:36:25.122Z,103593.59
2023-02-06T11:38:58.468Z,104710.41
2023-02-06T11:41:28.299Z,104562.06
2023-02-06T11:44:02.882Z,104328.84
2023-02-06T11:46:35.165Z,104048.09
2023-02-06T11:49:06.718Z,103932.56
2023-02-06T11:51:56.307Z,103699.09
2023-02-06T11:54:30.443Z,103525.56
2023-02-06T11:57:04.496Z,103583.47
2023-02-06T11:59:35.520Z,103521.31
2023-02-06T12:02:26.281Z,103484.63
2023-02-06T12:05:04.289Z,103517.75
2023-02-06T12:07:38.205Z,103554.97
2023-02-06T12:10:15.292Z,103588.63
2023-02-06T12:12:49.749Z,103596.19
2023-02-06T12:15:44.724Z,103620.44
2023-02-06T12:18:15.490Z,103602.38
2023-02-06T12:20:50.174Z,103620.53
2023-02-06T12:23:25.864Z,103679.94
2023-02-06T12:25:58.105Z,103720.56
2023-02-06T12:28:38.177Z,103544.19
2023-02-06T12:31:14.038Z,103391.75
2023-02-06T12:33:48.325Z,103133.09
2023-02-06T12:36:20.962Z,102561.47
2023-02-06T12:38:54.071Z,102198.72
2023-02-06T12:41:49.132Z,102437.22
2023-02-06T12:44:28.128Z,102936.91
2023-02-06T12:47:02.246Z,102791.38
2023-02-06T12:49:38.266Z,102672.84
2023-02-06T12:52:15.253Z,102838.19
2023-02-06T12:54:47.047Z,102697.19
2023-02-06T12:57:19.866Z,102664.72
2023-02-06T13:00:14.585Z,102490.47
2023-02-06T13:03:05.628Z,102460.25
2023-02-06T13:05:38.041Z,102408.75
2023-02-06T13:08:09.764Z,102342.78
2023-02-06T13:10:38.972Z,102153.53
2023-02-06T13:13:07.794Z,102167.56
2023-02-06T13:15:40.853Z,102301.00
2023-02-06T13:18:37.525Z,102619.75
2023-02-06T13:21:16.844Z,102643.09
2023-02-06T13:24:07.698Z,102822.28
2023-02-06T13:27:11.069Z,102734.38
2023-02-06T13:29:40.142Z,102598.00
2023-02-06T13:32:42.026Z,102593.59
2023-02-06T13:35:31.904Z,102519.06
2023-02-06T13:38:28.434Z,102423.50
2023-02-06T13:41:19.068Z,102444.72
2023-02-06T13:43:55.107Z,102441.38
2023-02-06T13:46:27.425Z,102286.09
2023-02-06T13:49:24.116Z,102367.78
2023-02-06T13:51:56.912Z,102290.44
2023-02-06T13:54:40.770Z,102353.16
2023-02-06T13:57:54.425Z,102316.97
2023-02-06T14:00:26.107Z,102251.84
2023-02-06T14:02:56.861Z,102183.75
2023-02-06T14:05:35.196Z,102243.75
2023-02-06T14:08:09.796Z,102161.38
2023-02-06T14:11:10.411Z,102201.06
2023-02-06T14:13:56.529Z,102122.69
2023-02-06T14:16:40.007Z,102023.53
2023-02-06T14:19:18.776Z,102035.22
2023-02-06T14:21:58.742Z,102017.50
2023-02-06T14:24:54.429Z,102127.94
2023-02-06T14:27:34.745Z,101983.19
2023-02-06T14:30:17.904Z,102039.00
2023-02-06T14:33:08.722Z,101996.75
2023-02-06T14:35:53.516Z,101974.41
2023-02-06T14:39:03.690Z,101997.44
2023-02-06T14:41:33.252Z,101954.19
2023-02-06T14:44:02.206Z,102050.53
2023-02-06T14:46:32.472Z,101958.09
2023-02-06T14:49:04.176Z,101931.47
2023-02-06T14:51:35.917Z,101879.13
2023-02-06T14:54:08.588Z,101932.47
2023-02-06T14:56:39.323Z,101803.81
2023-02-06T14:59:18.024Z,101900.34
2023-02-06T15:01:49.084Z,101929.47
2023-02-06T15:04:18.984Z,101994.50
2023-02-06T15:06:53.126Z,101969.63
2023-02-06T15:09:30.554Z,101983.78
2023-02-06T15:12:01.451Z,101830.59
2023-02-06T15:14:31.584Z,101895.47
2023-02-06T15:17:00.849Z,101893.78
2023-02-06T15:19:32.476Z,101794.13
2023-02-06T15:22:05.027Z,101808.31
2023-02-06T15:25:11.627Z,101902.06
2023-02-06T15:27:40.886Z,101947.25
2023-02-06T15:30:20.288Z,101978.47
2023-02-06T15:32:51.254Z,102096.50
2023-02-06T15:35:24.935Z,102457.22
2023-02-06T15:37:57.105Z,102690.19
2023-02-06T15:40:31.908Z,102955.56
2023-02-06T15:43:02.671Z,103064.50
2023-02-06T15:45:36.047Z,103056.41
2023-02-06T15:48:12.348Z,102976.22
2023-02-06T15:50:40.670Z,102832.06
2023-02-06T15:53:22.198Z,102998.00
2023-02-06T15:55:58.958Z,103111.84
2023-02-06T15:58:27.489Z,103291.25
2023-02-06T16:00:58.829Z,103516.38
2023-02-06T16:03:29.216Z,103718.47
2023-02-06T16:05:57.978Z,103632.09
2023-02-06T16:08:33.201Z,103523.81
2023-02-06T16:11:27.969Z,103378.66
2023-02-06T16:13:56.387Z,103285.22
2023-02-06T16:16:38.302Z,103281.47
2023-02-06T16:19:36.624Z,103362.81
2023-02-06T16:22:07.170Z,103396.44
2023-02-06T16:24:36.043Z,103405.00
2023-02-06T16:27:18.049Z,103426.78
2023-02-06T16:29:49.005Z,103456.97
2023-02-06T16:32:22.065Z,103478.22
2023-02-06T16:34:50.459Z,103550.31
2023-02-06T16:37:21.365Z,103550.97
2023-02-06T16:39:49.493Z,103581.81
2023-02-06T16:42:22.946Z,103569.47
2023-02-06T16:44:59.827Z,103612.13
2023-02-06T16:47:31.254Z,103628.03
2023-02-06T16:50:00.660Z,103648.50
2023-02-06T16:52:31.535Z,103670.31
2023-02-06T16:55:00.342Z,103672.00
2023-02-06T16:57:32.544Z,103682.97
2023-02-06T17:00:01.004Z,103693.56
2023-02-06T17:02:29.606Z,103700.25
2023-02-06T17:04:58.620Z,103707.31
2023-02-06T17:07:31.903Z,103716.41
2023-02-06T17:10:00.312Z,103718.56
2023-02-06T17:12:33.255Z,103728.63
2023-02-06T17:15:01.983Z,103746.28
2023-02-06T17:17:30.163Z,103763.19
2023-02-06T17:19:59.615Z,103768.28
2023-02-06T17:22:27.631Z,103767.00
2023-02-06T17:24:55.641Z,103792.97
2023-02-06T17:27:23.963Z,103802.69
2023-02-06T17:29:53.801Z,103810.97
2023-02-06T17:32:23.212Z,103819.53
2023-02-06T17:34:54.195Z,103843.72
2023-02-06T17:37:22.647Z,103853.84
2023-02-06T17:39:52.145Z,103871.56
2023-02-06T17:42:22.078Z,103870.50
2023-02-06T17:44:51.181Z,103873.44
2023-02-06T17:47:20.812Z,103873.34
2023-02-06T17:49:48.881Z,103871.94
2023-02-06T17:52:17.069Z,103864.63
2023-02-06T17:54:45.553Z,103882.81
2023-02-06T17:57:14.538Z,103871.28
2023-02-06T17:59:42.821Z,103879.50
2023-02-06T18:02:14.770Z,103877.59
2023-02-06T18:04:48.818Z,103852.03
2023-02-06T18:07:17.291Z,103872.34
2023-02-06T18:09:55.349Z,103865.78
2023-02-06T18:12:29.336Z,103854.53
2023-02-06T18:14:57.596Z,103853.66
2023-02-06T18:17:26.864Z,103825.91
2023-02-06T18:19:56.298Z,103848.81
2023-02-06T18:22:25.346Z,103844.72
2023-02-06T18:24:53.599Z,103830.22
2023-02-06T18:27:23.187Z,103851.81
2023-02-06T18:29:55.079Z,103846.00
2023-02-06T18:32:23.155Z,103838.03
2023-02-06T18:34:51.499Z,103842.88
2023-02-06T18:37:21.395Z,103818.00
2023-02-06T18:39:49.370Z,103809.31
2023-02-06T18:42:34.782Z,103825.41
2023-02-06T18:45:04.218Z,103810.00
2023-02-06T18:47:32.571Z,103788.44
2023-02-06T18:50:00.811Z,103810.66
2023-02-06T18:52:30.284Z,103804.56
2023-02-06T18:54:59.748Z,103769.72
2023-02-06T18:57:28.092Z,103793.34
2023-02-06T18:59:56.501Z,103786.72
2023-02-06T19:02:25.340Z,103753.44
2023-02-06T19:04:54.446Z,103755.53
2023-02-06T19:07:22.461Z,103764.72
2023-02-06T19:09:54.452Z,103766.53
2023-02-06T19:12:22.478Z,103760.81
2023-02-06T19:14:50.736Z,103741.91
2023-02-06T19:17:18.898Z,103737.06
2023-02-06T19:19:46.877Z,103751.16
2023-02-06T19:22:15.178Z,103740.97
2023-02-06T19:24:43.459Z,103757.50
2023-02-06T19:27:14.303Z,103753.91
2023-02-06T19:29:42.452Z,103757.63
2023-02-06T19:32:11.069Z,103730.13
2023-02-06T19:34:42.834Z,103754.28
2023-02-06T19:37:12.990Z,103756.31
2023-02-06T19:39:44.663Z,103753.66
2023-02-06T19:42:27.091Z,103717.31
2023-02-06T19:44:56.145Z,103749.25
2023-02-06T19:47:34.187Z,103748.72
2023-02-06T19:50:03.130Z,103747.53
2023-02-06T19:52:31.245Z,103731.56
2023-02-06T19:54:59.329Z,103739.50
2023-02-06T19:57:28.794Z,103738.22
2023-02-06T19:59:57.022Z,103729.41
2023-02-06T20:02:26.679Z,103716.13
2023-02-06T20:04:56.157Z,103704.06
2023-02-06T20:07:24.468Z,103720.63
2023-02-06T20:09:55.531Z,103722.97
2023-02-06T20:12:24.811Z,103722.53
2023-02-06T20:14:54.311Z,103708.84
2023-02-06T20:17:23.965Z,103704.53
2023-02-06T20:19:54.909Z,103694.38
2023-02-06T20:22:23.186Z,103709.63
2023-02-06T20:24:51.151Z,103717.06
2023-02-06T20:27:21.691Z,103713.78
2023-02-06T20:29:50.081Z,103716.25
2023-02-06T20:32:19.474Z,103698.34
2023-02-06T20:34:48.103Z,103701.88
2023-02-06T20:37:17.697Z,103708.44
2023-02-06T20:39:45.877Z,103708.03
2023-02-06T20:42:14.066Z,103707.44
2023-02-06T20:44:42.121Z,103701.59
2023-02-06T20:47:15.896Z,103712.03
2023-02-06T20:49:47.465Z,103698.97
2023-02-06T20:52:15.499Z,103679.31
2023-02-06T20:54:43.750Z,103695.25
2023-02-06T20:57:11.891Z,103686.59
2023-02-06T20:59:39.873Z,103679.41
2023-02-06T21:02:10.853Z,103671.41
2023-02-06T21:05:03.893Z,103673.75
2023-02-06T21:07:32.262Z,103655.94
2023-02-06T21:10:00.210Z,103679.53
2023-02-06T21:12:28.294Z,103676.25
2023-02-06T21:15:17.176Z,103661.25
2023-02-06T21:17:45.274Z,103664.06
2023-02-06T21:20:25.223Z,103640.31
2023-02-06T21:23:00.093Z,103627.06
2023-02-06T21:25:36.401Z,103620.22
2023-02-06T21:28:06.150Z,103636.22
2023-02-06T21:30:34.507Z,103617.94
2023-02-06T21:33:02.480Z,103625.69
2023-02-06T21:35:46.118Z,103632.44
2023-02-06T21:38:44.590Z,103618.28
2023-02-06T21:42:30.818Z,103621.22
2023-02-06T21:45:12.969Z,103630.28
2023-02-06T21:47:42.033Z,103623.47
2023-02-06T21:50:11.172Z,103629.75
2023-02-06T21:52:45.143Z,103642.06
2023-02-06T21:55:13.543Z,103643.66
2023-02-06T21:57:43.964Z,103630.31
2023-02-06T22:01:23.029Z,103617.88
2023-02-06T22:04:54.889Z,103645.59
2023-02-06T22:08:36.961Z,103646.16
2023-02-06T22:18:53.653Z,103656.47
2023-02-06T22:21:23.433Z,103674.25
2023-02-06T22:23:54.301Z,103672.88
2023-02-06T22:26:31.536Z,103663.66
2023-02-06T22:29:01.671Z,103671.63
2023-02-06T22:31:33.851Z,103649.00
2023-02-06T22:34:03.463Z,103663.72
2023-02-06T22:36:34.113Z,103685.03
2023-02-06T22:39:06.920Z,103687.44
2023-02-06T22:41:35.903Z,103692.16
2023-02-06T22:44:04.257Z,103703.53
2023-02-06T22:46:33.874Z,103697.09
2023-02-06T22:49:02.347Z,103696.50
2023-02-06T22:51:31.160Z,103708.50
2023-02-06T22:54:00.654Z,103717.75
2023-02-06T22:56:32.357Z,103738.88
2023-02-06T22:59:02.620Z,103729.00
2023-02-06T23:01:36.461Z,103743.50
2023-02-06T23:04:06.637Z,103752.19
2023-02-06T23:06:36.344Z,103745.41
2023-02-06T23:09:07.112Z,103777.66
2023-02-06T23:11:37.116Z,103751.34
2023-02-06T23:14:12.028Z,103773.28
2023-02-06T23:16:40.395Z,103749.84
2023-02-06T23:19:09.139Z,103772.03
2023-02-06T23:21:40.368Z,103760.25
2023-02-06T23:24:10.403Z,103776.25
2023-02-06T23:26:42.819Z,103798.25
2023-02-06T23:29:16.012Z,103803.34
2023-02-06T23:31:44.836Z,103813.91
2023-02-06T23:34:13.604Z,103843.53
2023-02-06T23:36:41.667Z,104016.50
2023-02-06T23:39:11.818Z,104024.69
2023-02-06T23:41:44.369Z,104000.50
2023-02-06T23:44:13.824Z,104012.56
2023-02-06T23:46:42.774Z,104010.19
2023-02-06T23:49:11.166Z,104005.28
2023-02-06T23:51:39.638Z,104009.44
2023-02-06T23:54:21.516Z,104014.72
2023-02-06T23:56:53.991Z,104014.78
2023-02-06T23:59:22.065Z,104007.72
